Time;durP1;ratioP1;P1;durP2;ratioP2;P2;SDS_P1;SDS_P2;PMS_P1;PMS_P2;Temp;Humidity;BMP_temperature;BMP_pressure;BME280_temperature;BME280_humidity;BME280_pressure;Samples;Min_cycle;Max_cycle;Signal;HPM_P1;HPM_P2
2022/10/31 05:03:00;;;;;;;9.30;5.07;;;11.00;99.90;;;;;;4985180;28;20927;-76
2022/10/31 05:05:29;;;;;;;8.63;4.87;;;10.90;99.90;;;;;;4986306;28;20448;-76
2022/10/31 05:07:55;;;;;;;9.30;4.23;;;10.90;99.90;;;;;;4982893;28;20457;-76
2022/10/31 05:10:24;;;;;;;14.13;5.37;;;10.90;99.90;;;;;;4981795;28;20476;-76
2022/10/31 05:12:52;;;;;;;12.27;6.07;;;10.80;99.90;;;;;;4987322;28;20470;-76
2022/10/31 05:15:21;;;;;;;11.10;5.10;;;10.90;99.90;;;;;;4982658;28;20464;-76
2022/10/31 05:17:48;;;;;;;7.93;4.60;;;10.90;99.90;;;;;;4986764;28;20451;-76
2022/10/31 05:20:18;;;;;;;9.93;4.77;;;10.80;99.90;;;;;;4986962;28;20471;-76
2022/10/31 05:22:46;;;;;;;8.87;4.60;;;10.80;99.90;;;;;;4986922;28;20470;-76
2022/10/31 05:25:13;;;;;;;8.60;4.90;;;10.70;99.90;;;;;;4986118;28;20459;-76
2022/10/31 05:27:41;;;;;;;5.93;4.60;;;10.70;99.90;;;;;;4987181;28;20468;-76
2022/10/31 05:30:08;;;;;;;7.30;4.67;;;10.80;99.90;;;;;;4987696;28;20994;-76
2022/10/31 05:32:38;;;;;;;11.90;4.70;;;10.70;99.90;;;;;;4988389;28;20844;-76
2022/10/31 05:35:08;;;;;;;10.83;4.60;;;10.70;99.90;;;;;;4986905;28;20932;-77
2022/10/31 05:37:36;;;;;;;7.73;4.10;;;10.70;99.90;;;;;;4989193;28;20464;-77
2022/10/31 05:40:03;;;;;;;6.43;4.53;;;10.70;99.90;;;;;;4987896;28;20503;-76
2022/10/31 05:42:30;;;;;;;8.07;5.87;;;10.70;99.90;;;;;;4987719;28;21063;-76
2022/10/31 05:44:57;;;;;;;13.40;5.30;;;10.60;99.90;;;;;;4986820;28;20952;-76
2022/10/31 05:47:24;;;;;;;7.30;4.90;;;10.60;99.90;;;;;;4988223;28;20467;-76
2022/10/31 05:49:51;;;;;;;8.40;4.63;;;10.60;99.90;;;;;;4987490;28;20455;-76
2022/10/31 05:52:18;;;;;;;12.20;5.20;;;10.60;99.90;;;;;;4986327;28;20483;-76
2022/10/31 05:54:46;;;;;;;7.17;4.57;;;10.50;99.90;;;;;;4984783;28;20459;-76
2022/10/31 05:57:13;;;;;;;13.83;5.70;;;10.50;99.90;;;;;;4984870;28;21147;-76
2022/10/31 05:59:40;;;;;;;7.43;4.60;;;10.50;99.90;;;;;;4984899;28;21323;-76
2022/10/31 06:02:06;;;;;;;10.80;4.73;;;10.50;99.90;;;;;;4984671;28;20487;-76
2022/10/31 06:04:33;;;;;;;7.37;4.07;;;10.50;99.90;;;;;;4985017;28;20475;-76
2022/10/31 06:07:00;;;;;;;7.60;4.90;;;10.50;99.90;;;;;;4985436;28;20459;-76
2022/10/31 06:09:27;;;;;;;13.10;5.00;;;10.60;99.90;;;;;;4985258;28;20471;-76
2022/10/31 06:11:55;;;;;;;10.23;4.63;;;10.50;99.90;;;;;;4985931;28;20484;-76
2022/10/31 06:14:21;;;;;;;12.70;5.10;;;10.50;99.90;;;;;;4990510;28;20456;-76
2022/10/31 06:16:48;;;;;;;10.63;5.70;;;10.50;99.90;;;;;;4991839;28;20456;-76
2022/10/31 06:19:15;;;;;;;7.73;5.17;;;10.50;99.90;;;;;;4991800;28;20499;-75
2022/10/31 06:21:42;;;;;;;8.10;5.10;;;10.50;99.90;;;;;;4992146;28;20479;-76
2022/10/31 06:24:08;;;;;;;9.80;5.27;;;10.50;99.90;;;;;;4992508;28;20828;-76
2022/10/31 06:26:35;;;;;;;12.37;4.70;;;10.50;99.90;;;;;;4991475;28;20462;-75
2022/10/31 06:29:03;;;;;;;10.40;5.27;;;10.50;99.90;;;;;;4992309;28;20456;-76
2022/10/31 06:31:30;;;;;;;9.10;5.40;;;10.50;99.90;;;;;;4992226;28;21008;-75
2022/10/31 06:33:57;;;;;;;14.50;5.20;;;10.50;99.90;;;;;;4991867;28;20452;-75
2022/10/31 06:36:24;;;;;;;8.63;4.90;;;10.50;99.90;;;;;;4990886;28;20455;-77
2022/10/31 06:38:51;;;;;;;7.80;4.63;;;10.50;99.90;;;;;;4990708;28;20490;-75
2022/10/31 06:41:18;;;;;;;9.10;4.57;;;10.50;99.90;;;;;;4991884;28;20987;-76
2022/10/31 06:43:47;;;;;;;13.07;5.67;;;10.50;99.90;;;;;;4991928;28;20459;-75
2022/10/31 06:46:15;;;;;;;9.80;5.50;;;10.50;99.90;;;;;;4992061;28;20463;-75
2022/10/31 06:48:42;;;;;;;9.10;5.50;;;10.50;99.90;;;;;;4992253;28;20457;-75
2022/10/31 06:51:09;;;;;;;7.47;4.70;;;10.50;99.90;;;;;;4992253;28;20523;-75
2022/10/31 06:53:36;;;;;;;8.60;5.03;;;10.50;99.90;;;;;;4992176;28;20456;-75
2022/10/31 06:56:03;;;;;;;10.20;5.40;;;10.50;99.90;;;;;;4991877;28;20458;-75
2022/10/31 06:58:30;;;;;;;11.03;5.20;;;10.50;99.90;;;;;;4991783;28;20439;-75
2022/10/31 07:01:00;;;;;;;7.03;4.50;;;10.50;99.90;;;;;;4991543;28;20839;-74
2022/10/31 07:03:28;;;;;;;9.30;5.70;;;10.50;99.90;;;;;;4992176;28;20448;-75
2022/10/31 07:05:56;;;;;;;6.50;4.87;;;10.50;99.90;;;;;;4994135;28;20467;-74
2022/10/31 07:08:24;;;;;;;6.67;5.17;;;10.50;99.90;;;;;;4995744;28;20501;-74
2022/10/31 07:10:54;;;;;;;8.00;5.20;;;10.50;99.90;;;;;;4995562;28;20480;-76
2022/10/31 07:13:25;;;;;;;8.47;4.83;;;10.50;99.90;;;;;;4995418;28;20456;-75
2022/10/31 07:15:52;;;;;;;8.60;4.70;;;10.50;99.90;;;;;;4995327;28;20439;-75
2022/10/31 07:18:20;;;;;;;9.60;4.80;;;10.50;99.90;;;;;;4995574;28;20461;-75
2022/10/31 07:20:48;;;;;;;6.77;5.20;;;10.50;99.90;;;;;;4995136;28;20478;-75
2022/10/31 07:23:15;;;;;;;7.70;4.90;;;10.50;99.90;;;;;;4995277;28;20454;-76
2022/10/31 07:25:42;;;;;;;7.30;5.40;;;10.50;99.90;;;;;;4995255;28;20455;-75
2022/10/31 07:28:09;;;;;;;9.03;5.77;;;10.50;99.90;;;;;;4995289;28;20947;-75
2022/10/31 07:30:36;;;;;;;8.50;5.70;;;10.50;99.90;;;;;;4995053;28;20980;-75
2022/10/31 07:33:03;;;;;;;11.53;7.20;;;10.50;99.90;;;;;;4995178;28;20459;-76
2022/10/31 07:35:30;;;;;;;13.07;6.37;;;10.40;99.90;;;;;;4994684;28;20451;-75
2022/10/31 07:38:07;;;;;;;12.23;6.67;;;10.40;99.90;;;;;;4995117;28;20447;-76
2022/10/31 07:40:34;;;;;;;12.90;6.67;;;10.50;99.90;;;;;;4994734;28;20994;-75
2022/10/31 07:43:00;;;;;;;11.10;7.37;;;10.40;99.90;;;;;;4994751;28;20944;-75
2022/10/31 07:45:27;;;;;;;11.60;6.60;;;10.40;99.90;;;;;;4994734;28;20455;-76
2022/10/31 07:47:54;;;;;;;9.10;6.80;;;10.50;99.90;;;;;;4994734;28;20474;-76
2022/10/31 07:50:22;;;;;;;12.77;6.30;;;10.50;99.90;;;;;;4994768;28;20452;-75
2022/10/31 07:52:58;;;;;;;6.83;5.70;;;10.50;99.90;;;;;;4994711;28;20463;-75
2022/10/31 07:55:26;;;;;;;10.83;7.27;;;10.60;99.90;;;;;;4994324;28;20971;-75
2022/10/31 07:57:57;;;;;;;13.23;7.63;;;10.60;99.90;;;;;;4994428;28;20467;-75
2022/10/31 08:00:24;;;;;;;12.83;6.73;;;10.60;99.90;;;;;;4994175;28;20503;-76
2022/10/31 08:02:57;;;;;;;8.67;6.40;;;10.70;99.90;;;;;;4994378;28;20436;-75
2022/10/31 08:05:24;;;;;;;10.53;5.97;;;10.70;99.90;;;;;;4994644;28;20455;-76
2022/10/31 08:07:51;;;;;;;12.13;7.10;;;10.80;99.90;;;;;;4994298;28;20460;-75
2022/10/31 08:10:18;;;;;;;13.47;7.40;;;10.90;99.90;;;;;;4994130;28;20937;-77
2022/10/31 08:12:46;;;;;;;9.93;6.50;;;11.00;99.90;;;;;;4994634;28;20459;-75
2022/10/31 08:15:13;;;;;;;10.80;6.73;;;11.10;99.90;;;;;;4994201;28;20470;-76
2022/10/31 08:17:39;;;;;;;12.13;7.23;;;11.20;99.90;;;;;;4993052;28;20940;-75
2022/10/31 08:20:07;;;;;;;12.60;7.13;;;11.30;99.90;;;;;;4994279;28;20483;-77
2022/10/31 08:22:34;;;;;;;11.37;7.37;;;11.30;99.90;;;;;;4993549;28;20479;-76
2022/10/31 08:25:01;;;;;;;9.83;6.93;;;11.40;99.90;;;;;;4993097;28;20550;-75
2022/10/31 08:27:27;;;;;;;13.80;7.37;;;11.50;99.90;;;;;;4993951;28;20459;-75
2022/10/31 08:29:55;;;;;;;11.23;7.10;;;11.60;99.90;;;;;;4993902;28;20951;-76
2022/10/31 08:32:22;;;;;;;14.43;7.43;;;11.70;99.90;;;;;;4993515;28;21233;-75
2022/10/31 08:34:49;;;;;;;14.23;6.87;;;11.80;99.90;;;;;;4994106;28;20466;-77
2022/10/31 08:37:19;;;;;;;12.13;6.90;;;12.00;99.90;;;;;;4993926;28;20455;-76
2022/10/31 08:39:46;;;;;;;14.37;7.80;;;12.20;99.90;;;;;;4993937;28;20475;-76
2022/10/31 08:42:13;;;;;;;12.53;6.30;;;12.30;99.90;;;;;;4993980;28;20479;-77
2022/10/31 08:44:40;;;;;;;11.10;5.50;;;12.40;99.90;;;;;;4993608;28;20460;-76
2022/10/31 08:47:08;;;;;;;11.00;6.27;;;12.50;99.90;;;;;;4994097;28;20462;-78
2022/10/31 08:49:35;;;;;;;10.03;6.17;;;12.60;99.90;;;;;;4993802;28;20458;-78
2022/10/31 08:52:02;;;;;;;8.83;5.40;;;12.60;99.90;;;;;;4993351;28;20471;-77
2022/10/31 08:54:29;;;;;;;10.60;5.60;;;12.60;99.90;;;;;;4993268;28;20845;-76
2022/10/31 08:56:56;;;;;;;6.97;5.57;;;12.70;99.90;;;;;;4993370;28;20451;-77
2022/10/31 08:59:23;;;;;;;8.97;5.70;;;12.80;99.90;;;;;;4993280;28;20491;-76
2022/10/31 09:01:50;;;;;;;9.27;6.13;;;12.90;99.90;;;;;;4993296;28;20488;-78
2022/10/31 09:04:18;;;;;;;8.40;5.80;;;13.00;99.90;;;;;;4993002;28;20983;-77
2022/10/31 09:06:44;;;;;;;13.77;5.70;;;13.10;99.90;;;;;;4993374;28;20466;-77
2022/10/31 09:09:11;;;;;;;12.57;5.80;;;13.40;99.90;;;;;;4993471;28;20458;-77
2022/10/31 09:11:38;;;;;;;11.93;5.83;;;13.50;99.90;;;;;;4992914;28;20472;-77
2022/10/31 09:14:05;;;;;;;11.40;6.27;;;13.70;99.90;;;;;;4992989;28;20470;-76
2022/10/31 09:16:32;;;;;;;11.27;6.50;;;13.70;99.90;;;;;;4993179;28;20455;-76
2022/10/31 09:18:58;;;;;;;15.17;6.70;;;13.80;99.90;;;;;;4993237;28;20455;-77
2022/10/31 09:21:26;;;;;;;9.17;6.57;;;13.80;99.90;;;;;;4993287;28;20476;-76
2022/10/31 09:23:53;;;;;;;10.40;6.67;;;13.90;99.90;;;;;;4992905;28;20459;-76
2022/10/31 09:26:20;;;;;;;14.47;7.60;;;14.00;99.90;;;;;;4992588;28;20460;-77
2022/10/31 09:28:47;;;;;;;12.77;6.33;;;14.10;99.90;;;;;;4993212;28;20451;-76
2022/10/31 09:31:14;;;;;;;7.70;6.00;;;14.30;99.90;;;;;;4993130;28;20487;-76
2022/10/31 09:33:41;;;;;;;11.00;7.40;;;14.30;99.90;;;;;;4993120;28;20456;-78
2022/10/31 09:36:08;;;;;;;12.83;8.00;;;14.30;99.90;;;;;;4992480;28;20463;-76
2022/10/31 09:38:37;;;;;;;11.60;8.10;;;14.30;99.90;;;;;;4992725;28;20467;-76
2022/10/31 09:41:10;;;;;;;12.80;7.63;;;14.40;99.90;;;;;;4992228;28;20871;-77
2022/10/31 09:43:49;;;;;;;12.57;6.87;;;14.60;99.90;;;;;;4992694;28;20459;-76
2022/10/31 09:46:23;;;;;;;8.17;6.20;;;14.70;99.90;;;;;;4992742;28;20447;-77
2022/10/31 09:49:04;;;;;;;9.27;6.20;;;14.80;99.90;;;;;;4993039;28;20444;-76
2022/10/31 09:51:34;;;;;;;10.37;6.63;;;14.90;99.90;;;;;;4992556;28;20483;-76
2022/10/31 09:54:06;;;;;;;12.60;9.20;;;15.00;99.90;;;;;;4992155;28;20968;-76
2022/10/31 09:56:34;;;;;;;14.67;8.00;;;15.00;99.90;;;;;;4992683;28;20440;-76
2022/10/31 09:59:03;;;;;;;14.17;6.90;;;15.00;99.90;;;;;;4992526;28;20853;-76
2022/10/31 10:01:39;;;;;;;10.60;7.70;;;15.00;99.90;;;;;;4992161;28;20495;-76
2022/10/31 10:04:21;;;;;;;13.43;7.37;;;15.00;99.90;;;;;;4992413;28;20491;-77
2022/10/31 10:06:52;;;;;;;14.73;7.03;;;15.00;99.90;;;;;;4992696;28;20444;-77
2022/10/31 10:09:24;;;;;;;11.13;6.90;;;15.00;99.90;;;;;;4992197;28;20944;-77
2022/10/31 10:11:59;;;;;;;10.33;7.40;;;15.00;99.90;;;;;;4992515;28;20486;-76
2022/10/31 10:14:40;;;;;;;12.13;6.90;;;15.10;99.90;;;;;;4992296;28;20547;-78
2022/10/31 10:17:23;;;;;;;9.60;6.07;;;15.20;99.90;;;;;;4992130;28;20455;-77
2022/10/31 10:20:03;;;;;;;13.00;7.03;;;15.20;99.90;;;;;;4992311;28;20835;-77
2022/10/31 10:22:38;;;;;;;12.93;6.93;;;15.30;99.90;;;;;;4992196;28;20483;-76
2022/10/31 10:25:15;;;;;;;9.63;6.10;;;15.30;99.90;;;;;;4992115;28;20459;-76
2022/10/31 10:27:49;;;;;;;10.47;6.40;;;15.40;99.90;;;;;;4992499;28;20443;-77
2022/10/31 10:30:18;;;;;;;15.17;7.63;;;15.60;99.90;;;;;;4992064;28;20972;-77
2022/10/31 10:32:48;;;;;;;12.07;6.70;;;15.70;99.90;;;;;;4992340;28;20464;-77
2022/10/31 10:35:23;;;;;;;14.17;7.27;;;15.80;99.90;;;;;;4991664;28;20849;-77
2022/10/31 10:37:53;;;;;;;12.27;6.70;;;15.90;99.90;;;;;;4992380;28;20439;-77
2022/10/31 10:40:24;;;;;;;18.27;6.80;;;16.00;99.90;;;;;;4993455;28;20869;-76
2022/10/31 10:43:20;;;;;;;9.53;5.70;;;16.10;99.90;;;;;;4996092;28;20468;-77
2022/10/31 10:49:03;;;;;;;13.43;7.00;;;16.30;99.90;;;;;;4995844;28;20474;-77
2022/10/31 10:51:39;;;;;;;12.07;6.80;;;16.40;99.90;;;;;;4995666;28;20473;-77
2022/10/31 10:54:24;;;;;;;16.00;7.00;;;16.50;99.90;;;;;;4995679;28;20871;-77
2022/10/31 10:57:01;;;;;;;13.23;6.80;;;16.60;99.90;;;;;;4996074;28;20431;-77
2022/10/31 10:59:30;;;;;;;13.57;6.47;;;16.70;99.90;;;;;;4995723;28;20474;-77
2022/10/31 11:01:57;;;;;;;13.93;6.93;;;16.90;99.90;;;;;;4995507;28;20479;-77
2022/10/31 11:04:31;;;;;;;15.13;7.10;;;17.00;99.90;;;;;;4995618;28;20477;-76
2022/10/31 11:06:59;;;;;;;12.43;6.73;;;17.10;99.90;;;;;;4995653;28;20835;-77
2022/10/31 11:09:26;;;;;;;9.77;5.63;;;17.20;99.90;;;;;;4995751;28;20451;-77
2022/10/31 11:11:55;;;;;;;11.50;6.70;;;17.30;99.90;;;;;;4995617;28;20471;-77
2022/10/31 11:14:23;;;;;;;19.53;7.87;;;17.40;99.90;;;;;;4995555;28;20451;-78
2022/10/31 11:16:54;;;;;;;15.60;7.00;;;17.50;99.90;;;;;;4995031;28;20951;-77
2022/10/31 11:19:24;;;;;;;10.57;5.97;;;17.60;99.90;;;;;;4995433;28;20490;-77
2022/10/31 11:21:51;;;;;;;9.70;6.27;;;17.80;99.90;;;;;;4995243;28;20503;-77
2022/10/31 11:24:20;;;;;;;14.80;6.73;;;17.90;99.90;;;;;;4994993;28;20456;-77
2022/10/31 11:26:49;;;;;;;14.47;6.30;;;17.90;99.90;;;;;;4995060;28;20452;-77
2022/10/31 11:29:21;;;;;;;10.40;5.63;;;18.00;99.90;;;;;;4994839;28;20460;-77
2022/10/31 11:31:51;;;;;;;14.17;7.27;;;18.00;99.90;;;;;;4995286;28;20482;-77
2022/10/31 11:34:28;;;;;;;13.80;7.20;;;18.00;99.90;;;;;;4995258;28;20467;-77
2022/10/31 11:36:57;;;;;;;16.73;6.53;;;18.00;99.90;;;;;;4994812;28;20940;-78
2022/10/31 11:39:25;;;;;;;12.10;6.30;;;18.00;99.90;;;;;;4995183;28;20466;-77
2022/10/31 11:41:54;;;;;;;15.63;6.67;;;18.10;99.90;;;;;;4994741;28;20492;-77
2022/10/31 11:44:27;;;;;;;13.73;6.67;;;18.20;99.90;;;;;;4994746;28;20460;-77
2022/10/31 11:46:57;;;;;;;15.23;6.73;;;18.20;99.90;;;;;;4995141;28;20799;-77
2022/10/31 11:49:31;;;;;;;10.43;6.73;;;18.20;99.90;;;;;;4994755;28;20474;-76
2022/10/31 11:52:01;;;;;;;16.50;6.17;;;18.30;99.90;;;;;;4993665;28;20482;-77
2022/10/31 11:54:30;;;;;;;12.47;7.67;;;18.30;99.90;;;;;;4994210;28;20462;-77
2022/10/31 11:56:57;;;;;;;14.10;7.83;;;18.50;99.90;;;;;;4994813;28;21163;-76
2022/10/31 11:59:29;;;;;;;11.60;7.13;;;18.70;99.90;;;;;;4994923;28;20459;-76
2022/10/31 12:01:58;;;;;;;8.43;5.37;;;18.80;99.90;;;;;;4994249;28;20887;-79
2022/10/31 12:04:35;;;;;;;10.80;6.03;;;18.80;99.90;;;;;;4994785;28;20466;-77
2022/10/31 12:07:02;;;;;;;11.63;6.17;;;18.80;99.90;;;;;;4995101;28;20924;-78
2022/10/31 12:09:31;;;;;;;15.73;6.47;;;18.80;99.90;;;;;;4994267;28;20470;-77
2022/10/31 12:12:18;;;;;;;12.80;6.67;;;18.80;99.90;;;;;;4994468;28;20480;-77
2022/10/31 12:14:55;;;;;;;10.47;6.30;;;18.70;99.90;;;;;;4994344;23;20503;-77
2022/10/31 12:17:26;;;;;;;11.37;6.70;;;18.70;99.90;;;;;;4994305;28;20531;-79
2022/10/31 12:20:04;;;;;;;13.47;6.73;;;18.70;99.90;;;;;;4994273;28;20951;-77
2022/10/31 12:22:40;;;;;;;13.10;6.20;;;18.70;99.90;;;;;;4994188;28;20521;-78
2022/10/31 12:25:24;;;;;;;13.63;6.73;;;18.70;99.90;;;;;;4974500;28;20462;-77
2022/10/31 12:28:08;;;;;;;18.43;7.10;;;18.80;99.90;;;;;;4974777;28;20460;-77
2022/10/31 12:30:49;;;;;;;11.73;5.70;;;18.90;99.90;;;;;;4974606;28;20440;-77
2022/10/31 12:33:30;;;;;;;12.13;6.50;;;18.90;99.90;;;;;;4974548;28;20487;-77
2022/10/31 12:36:11;;;;;;;12.60;6.20;;;18.80;99.90;;;;;;4974027;28;20918;-77
2022/10/31 12:38:51;;;;;;;14.10;6.33;;;18.80;99.90;;;;;;4974975;28;20445;-77
2022/10/31 12:41:30;;;;;;;10.83;5.77;;;18.90;99.90;;;;;;4974551;28;20480;-77
2022/10/31 12:44:06;;;;;;;15.37;6.00;;;18.80;99.90;;;;;;4974037;28;20476;-78
2022/10/31 12:46:53;;;;;;;10.40;5.67;;;18.90;99.90;;;;;;4974316;28;20444;-77
2022/10/31 12:49:36;;;;;;;11.77;6.13;;;18.90;99.90;;;;;;4974621;28;20547;-77
2022/10/31 12:52:15;;;;;;;14.90;6.77;;;19.00;99.90;;;;;;4973987;28;20902;-77
2022/10/31 12:55:03;;;;;;;11.33;6.53;;;19.00;99.90;;;;;;4973520;28;20482;-77
2022/10/31 12:57:33;;;;;;;17.20;6.93;;;19.00;99.90;;;;;;4974261;28;20471;-78
2022/10/31 13:00:04;;;;;;;11.83;5.90;;;19.00;99.90;;;;;;4974302;28;20781;-77
2022/10/31 13:02:39;;;;;;;10.03;5.90;;;19.00;99.90;;;;;;4973577;28;20988;-77
2022/10/31 13:05:15;;;;;;;14.60;6.90;;;19.10;99.90;;;;;;4973615;28;20444;-77
2022/10/31 13:07:46;;;;;;;13.77;6.33;;;19.10;99.90;;;;;;4973936;28;20826;-77
2022/10/31 13:10:21;;;;;;;8.60;5.40;;;19.10;99.90;;;;;;4974097;28;20457;-77
2022/10/31 13:12:52;;;;;;;13.73;6.67;;;19.10;99.90;;;;;;4973590;28;20456;-78
2022/10/31 13:15:22;;;;;;;12.63;7.07;;;19.10;99.90;;;;;;4973409;28;20459;-77
2022/10/31 13:17:54;;;;;;;14.23;7.20;;;19.20;99.90;;;;;;4973533;28;20830;-77
2022/10/31 13:20:29;;;;;;;11.57;6.90;;;19.20;99.90;;;;;;4973613;28;20826;-77
2022/10/31 13:23:02;;;;;;;14.00;7.30;;;19.20;99.90;;;;;;4973861;28;20444;-77
2022/10/31 13:25:34;;;;;;;15.10;6.30;;;19.10;99.90;;;;;;4973298;28;20657;-78
2022/10/31 13:28:06;;;;;;;11.73;6.87;;;19.10;99.90;;;;;;4973520;28;20816;-77
2022/10/31 13:30:36;;;;;;;14.53;8.10;;;19.00;99.90;;;;;;4973697;28;20440;-77
2022/10/31 13:33:08;;;;;;;18.13;7.63;;;19.00;99.90;;;;;;4973427;28;20980;-76
2022/10/31 13:35:46;;;;;;;11.23;7.20;;;18.90;99.90;;;;;;4973432;28;20443;-77
2022/10/31 13:38:21;;;;;;;13.03;7.23;;;18.90;99.90;;;;;;4973424;28;20810;-78
2022/10/31 13:40:54;;;;;;;13.33;7.13;;;18.90;99.90;;;;;;4973612;28;20500;-77
2022/10/31 13:43:33;;;;;;;12.97;7.50;;;18.90;99.90;;;;;;4973335;28;20473;-77
2022/10/31 13:46:00;;;;;;;12.73;6.90;;;18.90;99.90;;;;;;4972943;28;20860;-77
2022/10/31 13:48:43;;;;;;;17.70;7.33;;;18.90;99.90;;;;;;4973369;28;20460;-77
2022/10/31 13:51:11;;;;;;;12.80;6.80;;;18.90;99.90;;;;;;4970794;28;20479;-78
2022/10/31 13:53:57;;;;;;;17.73;7.80;;;18.90;99.90;;;;;;4973177;28;20481;-77
2022/10/31 13:56:26;;;;;;;17.33;7.10;;;18.90;99.90;;;;;;4972939;28;20453;-79
2022/10/31 13:59:04;;;;;;;13.10;7.43;;;18.90;99.90;;;;;;4972975;28;20967;-76
2022/10/31 14:01:33;;;;;;;12.87;7.60;;;18.90;99.90;;;;;;4972674;28;20507;-77
2022/10/31 14:04:06;;;;;;;16.10;8.30;;;19.00;99.90;;;;;;4972763;28;20480;-77
2022/10/31 14:06:38;;;;;;;12.73;7.70;;;19.00;99.90;;;;;;4972951;28;20471;-77
2022/10/31 14:09:05;;;;;;;18.33;7.83;;;19.00;99.90;;;;;;4972996;28;20457;-77
2022/10/31 14:11:32;;;;;;;13.00;7.10;;;19.00;99.90;;;;;;4973150;28;20456;-77
2022/10/31 14:14:01;;;;;;;14.83;7.33;;;19.10;99.90;;;;;;4972242;28;20499;-77
2022/10/31 14:16:30;;;;;;;12.10;7.13;;;19.10;99.90;;;;;;4976750;28;20838;-77
2022/10/31 14:19:02;;;;;;;17.53;8.37;;;19.10;99.90;;;;;;4977216;28;20452;-77
2022/10/31 14:21:32;;;;;;;10.10;6.27;;;19.10;99.90;;;;;;4976702;28;20837;-77
2022/10/31 14:23:59;;;;;;;11.33;7.10;;;19.20;99.90;;;;;;4976469;28;21027;-77
2022/10/31 14:26:34;;;;;;;13.43;6.50;;;19.30;99.90;;;;;;4976450;28;20461;-77
2022/10/31 14:29:03;;;;;;;13.73;6.60;;;19.30;99.90;;;;;;4976977;28;20460;-77
2022/10/31 14:31:37;;;;;;;10.23;6.13;;;19.30;99.90;;;;;;4976791;28;20462;-77
2022/10/31 14:34:22;;;;;;;12.00;6.70;;;19.40;99.90;;;;;;4976280;28;21011;-78
2022/10/31 14:37:04;;;;;;;19.23;7.00;;;19.50;99.90;;;;;;4976502;28;20452;-78
2022/10/31 14:39:38;;;;;;;14.27;6.70;;;19.50;99.90;;;;;;4976807;28;20483;-77
2022/10/31 14:42:18;;;;;;;23.87;7.60;;;19.60;99.90;;;;;;4976633;28;20491;-77
2022/10/31 14:45:27;;;;;;;18.60;7.27;;;19.70;99.90;;;;;;4976244;28;20487;-77
2022/10/31 14:48:09;;;;;;;17.27;7.00;;;19.70;99.90;;;;;;4947844;28;20464;-77
2022/10/31 14:50:45;;;;;;;15.37;7.30;;;19.70;99.90;;;;;;4976599;28;20761;-77
2022/10/31 14:53:17;;;;;;;14.00;7.67;;;19.70;99.90;;;;;;4976226;28;20866;-77
2022/10/31 14:55:48;;;;;;;11.87;6.73;;;19.70;99.90;;;;;;4976168;28;20451;-77
2022/10/31 14:58:21;;;;;;;16.37;7.33;;;19.70;99.90;;;;;;4976389;28;20452;-77
2022/10/31 15:00:48;;;;;;;14.47;9.40;;;19.70;99.90;;;;;;4976039;28;20437;-77
2022/10/31 15:03:17;;;;;;;22.20;9.13;;;19.60;99.90;;;;;;4976270;28;20476;-77
2022/10/31 15:05:49;;;;;;;17.80;8.10;;;19.60;99.90;;;;;;4976010;28;20543;-77
2022/10/31 15:08:30;;;;;;;14.17;6.73;;;19.50;99.90;;;;;;4976209;28;20441;-77
2022/10/31 15:10:56;;;;;;;11.20;6.30;;;19.50;99.90;;;;;;4976320;28;20448;-77
2022/10/31 15:13:23;;;;;;;22.23;7.57;;;19.50;99.90;;;;;;4975759;28;20492;-77
2022/10/31 15:15:53;;;;;;;13.17;6.93;;;19.40;99.90;;;;;;4975605;28;20471;-77
2022/10/31 15:18:24;;;;;;;18.40;7.80;;;19.40;99.90;;;;;;4975568;28;20876;-77
2022/10/31 15:20:53;;;;;;;17.17;7.17;;;19.40;99.90;;;;;;4975991;28;20452;-77
2022/10/31 15:23:24;;;;;;;15.07;7.00;;;19.40;99.90;;;;;;4975801;28;20482;-77
2022/10/31 15:25:51;;;;;;;11.50;6.70;;;19.30;99.90;;;;;;4975291;28;20456;-78
2022/10/31 15:28:23;;;;;;;14.60;6.63;;;19.30;99.90;;;;;;4975804;28;20552;-77
2022/10/31 15:30:52;;;;;;;17.40;7.10;;;19.30;99.90;;;;;;4975407;28;20441;-77
2022/10/31 15:33:24;;;;;;;15.23;9.00;;;19.20;99.90;;;;;;4976001;28;20485;-77
2022/10/31 15:36:00;;;;;;;10.57;5.80;;;19.20;99.90;;;;;;4975595;28;20460;-78
2022/10/31 15:38:28;;;;;;;12.03;6.33;;;19.10;99.90;;;;;;4975470;28;20937;-77
2022/10/31 15:40:58;;;;;;;12.73;6.50;;;19.10;99.90;;;;;;4975665;28;20574;-77
2022/10/31 15:43:26;;;;;;;18.03;7.73;;;19.10;99.90;;;;;;4975397;28;20479;-78
2022/10/31 15:45:52;;;;;;;12.57;6.63;;;19.00;99.90;;;;;;4975368;28;20456;-77
2022/10/31 15:48:24;;;;;;;17.93;7.87;;;19.00;99.90;;;;;;4975485;28;20455;-79
2022/10/31 15:50:53;;;;;;;14.73;7.70;;;18.90;99.90;;;;;;4975549;28;20437;-77
2022/10/31 15:53:25;;;;;;;15.40;7.57;;;18.80;99.90;;;;;;4974979;28;20485;-77
2022/10/31 15:55:55;;;;;;;16.10;6.90;;;18.80;99.90;;;;;;4974963;28;20500;-78
2022/10/31 15:58:23;;;;;;;20.97;7.97;;;18.70;99.90;;;;;;4975084;28;20936;-77
2022/10/31 16:00:59;;;;;;;10.70;7.20;;;18.60;99.90;;;;;;4974989;28;20462;-77
2022/10/31 16:03:27;;;;;;;10.80;6.83;;;18.60;99.90;;;;;;4975333;28;20555;-77
2022/10/31 16:05:56;;;;;;;14.30;6.83;;;18.50;99.90;;;;;;4974791;28;20463;-77
2022/10/31 16:08:36;;;;;;;11.40;7.20;;;18.50;99.90;;;;;;4974925;28;20457;-77
2022/10/31 16:11:19;;;;;;;18.87;7.73;;;18.40;99.90;;;;;;4974846;28;20913;-77
2022/10/31 16:13:55;;;;;;;11.77;7.30;;;18.40;99.90;;;;;;4974763;28;21004;-77
2022/10/31 16:16:23;;;;;;;16.80;6.60;;;18.30;99.90;;;;;;4975021;28;20437;-76
2022/10/31 16:18:52;;;;;;;13.13;7.07;;;18.20;99.90;;;;;;4974541;28;20958;-77
2022/10/31 16:21:26;;;;;;;11.00;6.30;;;18.20;99.90;;;;;;4974966;28;20462;-78
2022/10/31 16:23:59;;;;;;;11.67;7.37;;;18.10;99.90;;;;;;4974649;28;20975;-77
2022/10/31 16:26:27;;;;;;;14.27;8.10;;;18.00;99.90;;;;;;4974820;28;20503;-76
2022/10/31 16:28:54;;;;;;;10.90;7.30;;;17.90;99.90;;;;;;4974959;28;20479;-77
2022/10/31 16:31:29;;;;;;;15.57;8.03;;;17.80;99.90;;;;;;4974491;28;20461;-77
2022/10/31 16:34:18;;;;;;;18.40;7.83;;;17.80;99.90;;;;;;4974826;28;20487;-76
2022/10/31 16:36:45;;;;;;;12.90;7.50;;;17.70;99.90;;;;;;4970745;28;20468;-73
2022/10/31 16:39:13;;;;;;;11.73;7.80;;;17.60;99.90;;;;;;4974231;28;20460;-71
2022/10/31 16:41:42;;;;;;;18.13;7.13;;;17.50;99.90;;;;;;4974098;28;20587;-72
2022/10/31 16:44:18;;;;;;;15.37;8.37;;;17.40;99.90;;;;;;4973890;28;21047;-72
2022/10/31 16:46:45;;;;;;;17.43;8.47;;;17.40;99.90;;;;;;4974327;28;20482;-71
2022/10/31 16:49:12;;;;;;;15.83;7.13;;;17.30;99.90;;;;;;4974092;28;20467;-72
2022/10/31 16:51:39;;;;;;;19.53;8.10;;;17.30;99.90;;;;;;4974371;28;20452;-71
2022/10/31 16:54:06;;;;;;;14.40;6.90;;;17.20;99.90;;;;;;4973711;28;20523;-71
2022/10/31 16:56:37;;;;;;;21.30;10.00;;;17.20;99.90;;;;;;4974150;28;20464;-72
2022/10/31 16:59:06;;;;;;;22.33;10.20;;;17.10;99.90;;;;;;4974142;28;20461;-72
2022/10/31 17:01:34;;;;;;;23.17;11.00;;;17.00;99.90;;;;;;4973926;28;20964;-72
2022/10/31 17:04:01;;;;;;;13.50;9.20;;;17.00;99.90;;;;;;4973915;28;20531;-72
2022/10/31 17:06:28;;;;;;;22.80;10.80;;;16.90;99.90;;;;;;4974176;28;20457;-72
2022/10/31 17:08:55;;;;;;;12.60;9.40;;;16.90;99.90;;;;;;4973673;28;20457;-71
2022/10/31 17:11:25;;;;;;;18.20;11.47;;;16.90;99.90;;;;;;4973656;28;20969;-71
2022/10/31 17:13:54;;;;;;;18.27;11.60;;;16.90;99.90;;;;;;4973440;28;20890;-72
2022/10/31 17:16:21;;;;;;;20.50;12.20;;;16.90;99.90;;;;;;4973770;28;20465;-71
2022/10/31 17:18:48;;;;;;;25.73;14.07;;;16.80;99.90;;;;;;4973673;28;20483;-72
2022/10/31 17:21:19;;;;;;;25.67;14.07;;;16.80;99.90;;;;;;4980580;28;20466;-73
2022/10/31 17:23:46;;;;;;;24.73;11.57;;;16.70;99.90;;;;;;4983586;28;20496;-71
2022/10/31 17:26:13;;;;;;;23.00;13.17;;;16.70;99.90;;;;;;4973549;28;20463;-71
2022/10/31 17:28:40;;;;;;;19.37;14.60;;;16.60;99.90;;;;;;4973541;28;20460;-71
2022/10/31 17:31:18;;;;;;;29.00;19.40;;;16.60;99.90;;;;;;4973757;28;20460;-71
2022/10/31 17:33:45;;;;;;;18.43;12.50;;;16.60;99.90;;;;;;4973559;28;20473;-72
2022/10/31 17:36:12;;;;;;;20.33;11.77;;;16.40;99.90;;;;;;4973437;28;20460;-71
2022/10/31 17:38:39;;;;;;;18.87;12.13;;;16.40;99.90;;;;;;4973876;28;20456;-71
2022/10/31 17:41:06;;;;;;;19.30;11.00;;;16.30;99.90;;;;;;4973687;28;20456;-71
2022/10/31 17:43:36;;;;;;;20.13;11.40;;;16.20;99.90;;;;;;4973014;28;21017;-71
2022/10/31 17:46:03;;;;;;;16.27;10.77;;;16.20;99.90;;;;;;4973388;28;20467;-71
2022/10/31 17:48:36;;;;;;;16.67;10.73;;;16.20;99.90;;;;;;4973447;28;20468;-71
2022/10/31 17:51:04;;;;;;;19.73;11.23;;;16.10;99.90;;;;;;4973560;28;20445;-71
2022/10/31 17:53:32;;;;;;;13.53;9.93;;;16.10;99.90;;;;;;4973249;28;20477;-71
2022/10/31 17:56:03;;;;;;;16.50;9.43;;;16.00;99.90;;;;;;4973048;28;20460;-71
2022/10/31 17:58:30;;;;;;;17.07;10.30;;;16.00;99.90;;;;;;4980710;28;20568;-73
2022/10/31 18:00:57;;;;;;;17.00;9.40;;;15.90;99.90;;;;;;4978116;28;20823;-71